Here is the Quick Look data you requested

The Data originates at the National Weather Service, and is made available here by the UAlbany Department of Atmospheric and Environmental Sciences

Surface Observations

KJYO 151855Z AUTO 22008KT 190V260 10SM BKN080 38/21 A2990 RMK AO2=
KJYO 151915Z AUTO 21009KT 170V230 10SM SCT080 SCT095 38/22 A2989 RMK AO2=
KJYO 151935Z AUTO 21003KT 10SM SCT110 36/21 A2988 RMK AO2=
KJYO 152015Z AUTO 23008KT 10SM SCT047 SCT060 BKN085 36/22 A2986 RMK AO2=
KJYO 152035Z AUTO 22007KT 10SM VCTS SCT060 SCT090 BKN110 36/22 A2987 RMK AO2
 LTG DSNT ALQDS=
KJYO 152055Z AUTO 35017G28KT 10SM TSRA BKN065 BKN110 27/21 A2990 RMK AO2 LTG
 DSNT W THRU NE=
KJYO 152115Z AUTO 08012G18KT 2 1/2SM TSRA SCT012 BKN030 OVC065 24/23 A2988 RMK
 AO2 LTG DSNT ALQDS P0024=
KJYO 152135Z AUTO 13009KT 10SM TS SCT032 25/22 A2988 RMK AO2 LTG DSNT E THRU SW
 P0024=
KJYO 152155Z AUTO 14005G15KT 10SM CLR 26/22 A2988 RMK AO2 LTG DSNT S P0024=
KJYO 152215Z AUTO 17004KT 10SM CLR 27/22 A2988 RMK AO2 LTG DSNT S=
KJYO 152235Z AUTO 20008KT 10SM CLR 28/23 A2988 RMK AO2=
KJYO 152255Z AUTO 17008KT 10SM CLR 30/22 A2986 RMK AO2=
KJYO 152315Z AUTO 19005KT 10SM CLR 30/22 A2985 RMK AO2=
KJYO 152335Z AUTO 24006KT 10SM CLR 29/22 A2986 RMK AO2=
KJYO 152355Z AUTO 24003KT 10SM CLR 30/22 A2986 RMK AO2=
KJYO 160015Z AUTO 23004KT 10SM SCT120 30/22 A2986 RMK AO2=
KJYO 160035Z AUTO 23007KT 10SM CLR 28/21 A2987 RMK AO2=
KJYO 160055Z AUTO 23005KT 10SM CLR 28/21 A2987 RMK AO2=
KJYO 160115Z AUTO 25004KT 10SM CLR 27/22 A2988 RMK AO2=
KJYO 160135Z AUTO 24004KT 10SM CLR 27/21 A2988 RMK AO2=
KJYO 160155Z AUTO 23004KT 10SM CLR 26/21 A2988 RMK AO2=
KJYO 160215Z AUTO 24004KT 10SM CLR 26/21 A2988 RMK AO2=
KJYO 160235Z AUTO 23004KT 10SM CLR 26/22 A2988 RMK AO2=
KJYO 160255Z AUTO 24005KT 10SM CLR 26/22 A2988 RMK AO2=
KJYO 160315Z AUTO 22004KT 10SM CLR 26/22 A2987 RMK AO2=
KJYO 160335Z AUTO 21004KT 10SM CLR 26/22 A2986 RMK AO2=
KJYO 160355Z AUTO 22004KT 10SM CLR 26/22 A2985 RMK AO2=
KJYO 160415Z AUTO 23004KT 10SM CLR 26/22 A2985 RMK AO2=
KJYO 160435Z AUTO 19003KT 10SM CLR 26/22 A2985 RMK AO2=
KJYO 160455Z AUTO 23004KT 10SM CLR 26/22 A2985 RMK AO2=
KJYO 160515Z AUTO 25003KT 10SM CLR 26/22 A2985 RMK AO2=
KJYO 160535Z AUTO 24004KT 10SM CLR 25/22 A2985 RMK AO2=
KJYO 160555Z AUTO 24005KT 10SM CLR 26/22 A2985 RMK AO2=
KJYO 160615Z AUTO 27006KT 10SM CLR 25/22 A2984 RMK AO2=
KJYO 160635Z AUTO 26003KT 10SM CLR 25/22 A2985 RMK AO2=
KJYO 160655Z AUTO 00000KT 10SM CLR 25/22 A2985 RMK AO2=
KJYO 160715Z AUTO 00000KT 10SM CLR 25/22 A2985 RMK AO2=
KJYO 160735Z AUTO 25003KT 10SM CLR 25/22 A2986 RMK AO2=
KJYO 160755Z AUTO 00000KT 10SM CLR 25/22 A2986 RMK AO2=
KJYO 160815Z AUTO 00000KT 10SM CLR 25/22 A2986 RMK AO2=
KJYO 160835Z AUTO 23003KT 10SM CLR 25/22 A2986 RMK AO2=
KJYO 160855Z AUTO 00000KT 10SM CLR 25/22 A2987 RMK AO2=
KJYO 160915Z AUTO 00000KT 10SM CLR 25/22 A2986 RMK AO2=
KJYO 160935Z AUTO 00000KT 10SM CLR 24/22 A2986 RMK AO2=
KJYO 160955Z AUTO 18004KT 10SM CLR 24/22 A2987 RMK AO2=
KJYO 161015Z AUTO 00000KT 10SM CLR 23/22 A2987 RMK AO2=
KJYO 161035Z AUTO 00000KT 10SM CLR 24/22 A2988 RMK AO2=
KJYO 161055Z AUTO 00000KT 10SM CLR 24/22 A2989 RMK AO2=
KJYO 161115Z AUTO 00000KT 10SM CLR 25/22 A2989 RMK AO2=
KJYO 161135Z AUTO 00000KT 10SM CLR 25/23 A2990 RMK AO2=
KJYO 161155Z AUTO 00000KT 10SM CLR 26/23 A2990 RMK AO2=
KJYO 161215Z AUTO 23003KT 10SM CLR 27/23 A2990 RMK AO2=
KJYO 161235Z AUTO 00000KT 10SM CLR 28/23 A2990 RMK AO2=
KJYO 161255Z AUTO 17003KT 10SM CLR 29/23 A2989 RMK AO2=
KJYO 161315Z AUTO 19003KT 10SM CLR 30/23 A2988 RMK AO2=
KJYO 161335Z AUTO 18004KT 10SM CLR 31/23 A2988 RMK AO2=
KJYO 161355Z AUTO 00000KT 10SM CLR 32/23 A2988 RMK AO2=
KJYO 161415Z AUTO 27003KT 10SM CLR 33/24 A2988 RMK AO2=
KJYO 161435Z AUTO 24007KT 10SM CLR 35/23 A2987 RMK AO2=
KJYO 161455Z AUTO 27005KT 10SM CLR 35/23 A2987 RMK AO2=
KJYO 161515Z AUTO 22007KT 170V260 10SM CLR 35/23 A2987 RMK AO2=
KJYO 161535Z AUTO 26008G15KT 10SM CLR 36/23 A2987 RMK AO2=
KJYO 161555Z AUTO 21010G16KT 10SM CLR 37/22 A2987 RMK AO2=
KJYO 161615Z AUTO 22005G16KT 10SM CLR 37/22 A2987 RMK AO2=
KJYO 161635Z AUTO 20010G16KT 140V210 10SM CLR 37/23 A2986 RMK AO2=
KJYO 161655Z AUTO 19012G22KT 10SM CLR 37/22 A2985 RMK AO2=
KJYO 161715Z AUTO 20012G19KT 10SM CLR 37/22 A2985 RMK AO2=
KJYO 161735Z AUTO 20009G17KT 10SM CLR 37/23 A2984 RMK AO2=
KJYO 161755Z AUTO 21012G17KT 10SM CLR 38/23 A2984 RMK AO2=
KJYO 161815Z AUTO 20013G22KT 180V240 10SM SCT070 37/23 A2983 RMK AO2=
KJYO 161835Z AUTO 22011G14KT 180V250 10SM SCT070 37/23 A2982 RMK AO2=
KJYO 161855Z AUTO 17008G16KT 10SM SCT070 38/23 A2982 RMK AO2=

Decoded Surface Observations


The weather observed at LEESBURG/GODFREY, VA (KJYO) at 02:55 PM EDT was:
  The skies were mostly cloudy.
  Temperature:100F ( 38C)  Dewpoint:  70F ( 21C)  Relative Humidity:  37%
  Winds from the SW (220 degs) at  9 mph.
  Altimeter:29.90 inches of mercury.
  The prevailing visibility was 10 miles.

The weather observed at LEESBURG/GODFREY, VA (KJYO) at 03:15 PM EDT was:
  The skies were partly cloudy.
  Temperature:100F ( 38C)  Dewpoint:  72F ( 22C)  Relative Humidity:  40%
  Winds from the SW (210 degs) at 10 mph.
  Altimeter:29.89 inches of mercury.
  The prevailing visibility was 10 miles.

The weather observed at LEESBURG/GODFREY, VA (KJYO) at 03:35 PM EDT was:
  The skies were partly cloudy.
  Temperature: 97F ( 36C)  Dewpoint:  70F ( 21C)  Relative Humidity:  42%
  Winds from the SW (210 degs) at  3 mph.
  Altimeter:29.88 inches of mercury.
  The prevailing visibility was 10 miles.

The weather observed at LEESBURG/GODFREY, VA (KJYO) at 04:15 PM EDT was:
  The skies were mostly cloudy.
  Temperature: 97F ( 36C)  Dewpoint:  72F ( 22C)  Relative Humidity:  44%
  Winds from the SW (230 degs) at  9 mph.
  Altimeter:29.86 inches of mercury.
  The prevailing visibility was 10 miles.

The weather observed at LEESBURG/GODFREY, VA (KJYO) at 04:35 PM EDT was:
  The skies were mostly cloudy.
  The weather reported was a thunderstorm in the vicinity.
  Temperature: 97F ( 36C)  Dewpoint:  72F ( 22C)  Relative Humidity:  44%
  Winds from the SW (220 degs) at  8 mph.
  Altimeter:29.87 inches of mercury.
  The prevailing visibility was 10 miles.

The weather observed at LEESBURG/GODFREY, VA (KJYO) at 04:55 PM EDT was:
  The skies were mostly cloudy.
  The weather reported was moderate thunder rain.
  Temperature: 81F ( 27C)  Dewpoint:  70F ( 21C)  Relative Humidity:  70%
  Winds from the N  (350 degs) at 20 mph.
  Altimeter:29.90 inches of mercury.
  The prevailing visibility was 10 miles.

The weather observed at LEESBURG/GODFREY, VA (KJYO) at 05:15 PM EDT was:
  The skies were cloudy.
  The weather reported was moderate thunder rain.
  Temperature: 75F ( 24C)  Dewpoint:  73F ( 23C)  Relative Humidity:  94%
  Winds from the E  (080 degs) at 14 mph.
  Altimeter:29.88 inches of mercury.
  The prevailing visibility was 2.5 miles.
  There has been 0.24 inches of precipitation in the past hour.

The weather observed at LEESBURG/GODFREY, VA (KJYO) at 05:35 PM EDT was:
  The skies were partly cloudy.
  The weather reported was a thunderstorm.
  Temperature: 77F ( 25C)  Dewpoint:  72F ( 22C)  Relative Humidity:  83%
  Winds from the SE (130 degs) at 10 mph.
  Altimeter:29.88 inches of mercury.
  The prevailing visibility was 10 miles.
  There has been 0.24 inches of precipitation in the past hour.

The weather observed at LEESBURG/GODFREY, VA (KJYO) at 05:55 PM EDT was:
  The skies were clear.
  Temperature: 79F ( 26C)  Dewpoint:  72F ( 22C)  Relative Humidity:  79%
  Winds from the SE (140 degs) at  6 mph.
  Altimeter:29.88 inches of mercury.
  The prevailing visibility was 10 miles.
  There has been 0.24 inches of precipitation in the past hour.

The weather observed at LEESBURG/GODFREY, VA (KJYO) at 06:15 PM EDT was:
  The skies were clear.
  Temperature: 81F ( 27C)  Dewpoint:  72F ( 22C)  Relative Humidity:  74%
  Winds from the S  (170 degs) at  5 mph.
  Altimeter:29.88 inches of mercury.
  The prevailing visibility was 10 miles.

The weather observed at LEESBURG/GODFREY, VA (KJYO) at 06:35 PM EDT was:
  The skies were clear.
  Temperature: 82F ( 28C)  Dewpoint:  73F ( 23C)  Relative Humidity:  74%
  Winds from the SSW(200 degs) at  9 mph.
  Altimeter:29.88 inches of mercury.
  The prevailing visibility was 10 miles.

The weather observed at LEESBURG/GODFREY, VA (KJYO) at 06:55 PM EDT was:
  The skies were clear.
  Temperature: 86F ( 30C)  Dewpoint:  72F ( 22C)  Relative Humidity:  62%
  Winds from the S  (170 degs) at  9 mph.
  Altimeter:29.86 inches of mercury.
  The prevailing visibility was 10 miles.

The weather observed at LEESBURG/GODFREY, VA (KJYO) at 07:15 PM EDT was:
  The skies were clear.
  Temperature: 86F ( 30C)  Dewpoint:  72F ( 22C)  Relative Humidity:  62%
  Winds from the S  (190 degs) at  6 mph.
  Altimeter:29.85 inches of mercury.
  The prevailing visibility was 10 miles.

The weather observed at LEESBURG/GODFREY, VA (KJYO) at 07:35 PM EDT was:
  The skies were clear.
  Temperature: 84F ( 29C)  Dewpoint:  72F ( 22C)  Relative Humidity:  66%
  Winds from the SW (240 degs) at  7 mph.
  Altimeter:29.86 inches of mercury.
  The prevailing visibility was 10 miles.

The weather observed at LEESBURG/GODFREY, VA (KJYO) at 07:55 PM EDT was:
  The skies were clear.
  Temperature: 86F ( 30C)  Dewpoint:  72F ( 22C)  Relative Humidity:  62%
  Winds from the SW (240 degs) at  3 mph.
  Altimeter:29.86 inches of mercury.
  The prevailing visibility was 10 miles.

The weather observed at LEESBURG/GODFREY, VA (KJYO) at 08:15 PM EDT was:
  The skies were partly cloudy.
  Temperature: 86F ( 30C)  Dewpoint:  72F ( 22C)  Relative Humidity:  62%
  Winds from the SW (230 degs) at  5 mph.
  Altimeter:29.86 inches of mercury.
  The prevailing visibility was 10 miles.

The weather observed at LEESBURG/GODFREY, VA (KJYO) at 08:35 PM EDT was:
  The skies were clear.
  Temperature: 82F ( 28C)  Dewpoint:  70F ( 21C)  Relative Humidity:  66%
  Winds from the SW (230 degs) at  8 mph.
  Altimeter:29.87 inches of mercury.
  The prevailing visibility was 10 miles.

The weather observed at LEESBURG/GODFREY, VA (KJYO) at 08:55 PM EDT was:
  The skies were clear.
  Temperature: 82F ( 28C)  Dewpoint:  70F ( 21C)  Relative Humidity:  66%
  Winds from the SW (230 degs) at  6 mph.
  Altimeter:29.87 inches of mercury.
  The prevailing visibility was 10 miles.

The weather observed at LEESBURG/GODFREY, VA (KJYO) at 09:15 PM EDT was:
  The skies were clear.
  Temperature: 81F ( 27C)  Dewpoint:  72F ( 22C)  Relative Humidity:  74%
  Winds from the WSW(250 degs) at  5 mph.
  Altimeter:29.88 inches of mercury.
  The prevailing visibility was 10 miles.

The weather observed at LEESBURG/GODFREY, VA (KJYO) at 09:35 PM EDT was:
  The skies were clear.
  Temperature: 81F ( 27C)  Dewpoint:  70F ( 21C)  Relative Humidity:  70%
  Winds from the SW (240 degs) at  5 mph.
  Altimeter:29.88 inches of mercury.
  The prevailing visibility was 10 miles.

The weather observed at LEESBURG/GODFREY, VA (KJYO) at 09:55 PM EDT was:
  The skies were clear.
  Temperature: 79F ( 26C)  Dewpoint:  70F ( 21C)  Relative Humidity:  74%
  Winds from the SW (230 degs) at  5 mph.
  Altimeter:29.88 inches of mercury.
  The prevailing visibility was 10 miles.

The weather observed at LEESBURG/GODFREY, VA (KJYO) at 10:15 PM EDT was:
  The skies were clear.
  Temperature: 79F ( 26C)  Dewpoint:  70F ( 21C)  Relative Humidity:  74%
  Winds from the SW (240 degs) at  5 mph.
  Altimeter:29.88 inches of mercury.
  The prevailing visibility was 10 miles.

The weather observed at LEESBURG/GODFREY, VA (KJYO) at 10:35 PM EDT was:
  The skies were clear.
  Temperature: 79F ( 26C)  Dewpoint:  72F ( 22C)  Relative Humidity:  79%
  Winds from the SW (230 degs) at  5 mph.
  Altimeter:29.88 inches of mercury.
  The prevailing visibility was 10 miles.

The weather observed at LEESBURG/GODFREY, VA (KJYO) at 10:55 PM EDT was:
  The skies were clear.
  Temperature: 79F ( 26C)  Dewpoint:  72F ( 22C)  Relative Humidity:  79%
  Winds from the SW (240 degs) at  6 mph.
  Altimeter:29.88 inches of mercury.
  The prevailing visibility was 10 miles.

The weather observed at LEESBURG/GODFREY, VA (KJYO) at 11:15 PM EDT was:
  The skies were clear.
  Temperature: 79F ( 26C)  Dewpoint:  72F ( 22C)  Relative Humidity:  79%
  Winds from the SW (220 degs) at  5 mph.
  Altimeter:29.87 inches of mercury.
  The prevailing visibility was 10 miles.

The weather observed at LEESBURG/GODFREY, VA (KJYO) at 11:35 PM EDT was:
  The skies were clear.
  Temperature: 79F ( 26C)  Dewpoint:  72F ( 22C)  Relative Humidity:  79%
  Winds from the SW (210 degs) at  5 mph.
  Altimeter:29.86 inches of mercury.
  The prevailing visibility was 10 miles.

The weather observed at LEESBURG/GODFREY, VA (KJYO) at 11:55 PM EDT was:
  The skies were clear.
  Temperature: 79F ( 26C)  Dewpoint:  72F ( 22C)  Relative Humidity:  79%
  Winds from the SW (220 degs) at  5 mph.
  Altimeter:29.85 inches of mercury.
  The prevailing visibility was 10 miles.

The weather observed at LEESBURG/GODFREY, VA (KJYO) at 12:15 AM EDT was:
  The skies were clear.
  Temperature: 79F ( 26C)  Dewpoint:  72F ( 22C)  Relative Humidity:  79%
  Winds from the SW (230 degs) at  5 mph.
  Altimeter:29.85 inches of mercury.
  The prevailing visibility was 10 miles.

The weather observed at LEESBURG/GODFREY, VA (KJYO) at 12:35 AM EDT was:
  The skies were clear.
  Temperature: 79F ( 26C)  Dewpoint:  72F ( 22C)  Relative Humidity:  79%
  Winds from the S  (190 degs) at  3 mph.
  Altimeter:29.85 inches of mercury.
  The prevailing visibility was 10 miles.

The weather observed at LEESBURG/GODFREY, VA (KJYO) at 12:55 AM EDT was:
  The skies were clear.
  Temperature: 79F ( 26C)  Dewpoint:  72F ( 22C)  Relative Humidity:  79%
  Winds from the SW (230 degs) at  5 mph.
  Altimeter:29.85 inches of mercury.
  The prevailing visibility was 10 miles.

The weather observed at LEESBURG/GODFREY, VA (KJYO) at 01:15 AM EDT was:
  The skies were clear.
  Temperature: 79F ( 26C)  Dewpoint:  72F ( 22C)  Relative Humidity:  79%
  Winds from the WSW(250 degs) at  3 mph.
  Altimeter:29.85 inches of mercury.
  The prevailing visibility was 10 miles.

The weather observed at LEESBURG/GODFREY, VA (KJYO) at 01:35 AM EDT was:
  The skies were clear.
  Temperature: 77F ( 25C)  Dewpoint:  72F ( 22C)  Relative Humidity:  83%
  Winds from the SW (240 degs) at  5 mph.
  Altimeter:29.85 inches of mercury.
  The prevailing visibility was 10 miles.

The weather observed at LEESBURG/GODFREY, VA (KJYO) at 01:55 AM EDT was:
  The skies were clear.
  Temperature: 79F ( 26C)  Dewpoint:  72F ( 22C)  Relative Humidity:  79%
  Winds from the SW (240 degs) at  6 mph.
  Altimeter:29.85 inches of mercury.
  The prevailing visibility was 10 miles.

The weather observed at LEESBURG/GODFREY, VA (KJYO) at 02:15 AM EDT was:
  The skies were clear.
  Temperature: 77F ( 25C)  Dewpoint:  72F ( 22C)  Relative Humidity:  83%
  Winds from the W  (270 degs) at  7 mph.
  Altimeter:29.84 inches of mercury.
  The prevailing visibility was 10 miles.

The weather observed at LEESBURG/GODFREY, VA (KJYO) at 02:35 AM EDT was:
  The skies were clear.
  Temperature: 77F ( 25C)  Dewpoint:  72F ( 22C)  Relative Humidity:  83%
  Winds from the W  (260 degs) at  3 mph.
  Altimeter:29.85 inches of mercury.
  The prevailing visibility was 10 miles.

The weather observed at LEESBURG/GODFREY, VA (KJYO) at 02:55 AM EDT was:
  The skies were clear.
  Temperature: 77F ( 25C)  Dewpoint:  72F ( 22C)  Relative Humidity:  83%
  Winds from the CLM(CLM degs) at  0 mph.
  Altimeter:29.85 inches of mercury.
  The prevailing visibility was 10 miles.

The weather observed at LEESBURG/GODFREY, VA (KJYO) at 03:15 AM EDT was:
  The skies were clear.
  Temperature: 77F ( 25C)  Dewpoint:  72F ( 22C)  Relative Humidity:  83%
  Winds from the CLM(CLM degs) at  0 mph.
  Altimeter:29.85 inches of mercury.
  The prevailing visibility was 10 miles.

The weather observed at LEESBURG/GODFREY, VA (KJYO) at 03:35 AM EDT was:
  The skies were clear.
  Temperature: 77F ( 25C)  Dewpoint:  72F ( 22C)  Relative Humidity:  83%
  Winds from the WSW(250 degs) at  3 mph.
  Altimeter:29.86 inches of mercury.
  The prevailing visibility was 10 miles.

The weather observed at LEESBURG/GODFREY, VA (KJYO) at 03:55 AM EDT was:
  The skies were clear.
  Temperature: 77F ( 25C)  Dewpoint:  72F ( 22C)  Relative Humidity:  83%
  Winds from the CLM(CLM degs) at  0 mph.
  Altimeter:29.86 inches of mercury.
  The prevailing visibility was 10 miles.

The weather observed at LEESBURG/GODFREY, VA (KJYO) at 04:15 AM EDT was:
  The skies were clear.
  Temperature: 77F ( 25C)  Dewpoint:  72F ( 22C)  Relative Humidity:  83%
  Winds from the CLM(CLM degs) at  0 mph.
  Altimeter:29.86 inches of mercury.
  The prevailing visibility was 10 miles.

The weather observed at LEESBURG/GODFREY, VA (KJYO) at 04:35 AM EDT was:
  The skies were clear.
  Temperature: 77F ( 25C)  Dewpoint:  72F ( 22C)  Relative Humidity:  83%
  Winds from the SW (230 degs) at  3 mph.
  Altimeter:29.86 inches of mercury.
  The prevailing visibility was 10 miles.

The weather observed at LEESBURG/GODFREY, VA (KJYO) at 04:55 AM EDT was:
  The skies were clear.
  Temperature: 77F ( 25C)  Dewpoint:  72F ( 22C)  Relative Humidity:  83%
  Winds from the CLM(CLM degs) at  0 mph.
  Altimeter:29.87 inches of mercury.
  The prevailing visibility was 10 miles.

The weather observed at LEESBURG/GODFREY, VA (KJYO) at 05:15 AM EDT was:
  The skies were clear.
  Temperature: 77F ( 25C)  Dewpoint:  72F ( 22C)  Relative Humidity:  83%
  Winds from the CLM(CLM degs) at  0 mph.
  Altimeter:29.86 inches of mercury.
  The prevailing visibility was 10 miles.

The weather observed at LEESBURG/GODFREY, VA (KJYO) at 05:35 AM EDT was:
  The skies were clear.
  Temperature: 75F ( 24C)  Dewpoint:  72F ( 22C)  Relative Humidity:  89%
  Winds from the CLM(CLM degs) at  0 mph.
  Altimeter:29.86 inches of mercury.
  The prevailing visibility was 10 miles.

The weather observed at LEESBURG/GODFREY, VA (KJYO) at 05:55 AM EDT was:
  The skies were clear.
  Temperature: 75F ( 24C)  Dewpoint:  72F ( 22C)  Relative Humidity:  89%
  Winds from the S  (180 degs) at  5 mph.
  Altimeter:29.87 inches of mercury.
  The prevailing visibility was 10 miles.

The weather observed at LEESBURG/GODFREY, VA (KJYO) at 06:15 AM EDT was:
  The skies were clear.
  Temperature: 73F ( 23C)  Dewpoint:  72F ( 22C)  Relative Humidity:  94%
  Winds from the CLM(CLM degs) at  0 mph.
  Altimeter:29.87 inches of mercury.
  The prevailing visibility was 10 miles.

The weather observed at LEESBURG/GODFREY, VA (KJYO) at 06:35 AM EDT was:
  The skies were clear.
  Temperature: 75F ( 24C)  Dewpoint:  72F ( 22C)  Relative Humidity:  89%
  Winds from the CLM(CLM degs) at  0 mph.
  Altimeter:29.88 inches of mercury.
  The prevailing visibility was 10 miles.

The weather observed at LEESBURG/GODFREY, VA (KJYO) at 06:55 AM EDT was:
  The skies were clear.
  Temperature: 75F ( 24C)  Dewpoint:  72F ( 22C)  Relative Humidity:  89%
  Winds from the CLM(CLM degs) at  0 mph.
  Altimeter:29.89 inches of mercury.
  The prevailing visibility was 10 miles.

The weather observed at LEESBURG/GODFREY, VA (KJYO) at 07:15 AM EDT was:
  The skies were clear.
  Temperature: 77F ( 25C)  Dewpoint:  72F ( 22C)  Relative Humidity:  83%
  Winds from the CLM(CLM degs) at  0 mph.
  Altimeter:29.89 inches of mercury.
  The prevailing visibility was 10 miles.

The weather observed at LEESBURG/GODFREY, VA (KJYO) at 07:35 AM EDT was:
  The skies were clear.
  Temperature: 77F ( 25C)  Dewpoint:  73F ( 23C)  Relative Humidity:  89%
  Winds from the CLM(CLM degs) at  0 mph.
  Altimeter:29.90 inches of mercury.
  The prevailing visibility was 10 miles.

The weather observed at LEESBURG/GODFREY, VA (KJYO) at 07:55 AM EDT was:
  The skies were clear.
  Temperature: 79F ( 26C)  Dewpoint:  73F ( 23C)  Relative Humidity:  84%
  Winds from the CLM(CLM degs) at  0 mph.
  Altimeter:29.90 inches of mercury.
  The prevailing visibility was 10 miles.

The weather observed at LEESBURG/GODFREY, VA (KJYO) at 08:15 AM EDT was:
  The skies were clear.
  Temperature: 81F ( 27C)  Dewpoint:  73F ( 23C)  Relative Humidity:  79%
  Winds from the SW (230 degs) at  3 mph.
  Altimeter:29.90 inches of mercury.
  The prevailing visibility was 10 miles.

The weather observed at LEESBURG/GODFREY, VA (KJYO) at 08:35 AM EDT was:
  The skies were clear.
  Temperature: 82F ( 28C)  Dewpoint:  73F ( 23C)  Relative Humidity:  74%
  Winds from the CLM(CLM degs) at  0 mph.
  Altimeter:29.90 inches of mercury.
  The prevailing visibility was 10 miles.

The weather observed at LEESBURG/GODFREY, VA (KJYO) at 08:55 AM EDT was:
  The skies were clear.
  Temperature: 84F ( 29C)  Dewpoint:  73F ( 23C)  Relative Humidity:  70%
  Winds from the S  (170 degs) at  3 mph.
  Altimeter:29.89 inches of mercury.
  The prevailing visibility was 10 miles.

The weather observed at LEESBURG/GODFREY, VA (KJYO) at 09:15 AM EDT was:
  The skies were clear.
  Temperature: 86F ( 30C)  Dewpoint:  73F ( 23C)  Relative Humidity:  66%
  Winds from the S  (190 degs) at  3 mph.
  Altimeter:29.88 inches of mercury.
  The prevailing visibility was 10 miles.

The weather observed at LEESBURG/GODFREY, VA (KJYO) at 09:35 AM EDT was:
  The skies were clear.
  Temperature: 88F ( 31C)  Dewpoint:  73F ( 23C)  Relative Humidity:  62%
  Winds from the S  (180 degs) at  5 mph.
  Altimeter:29.88 inches of mercury.
  The prevailing visibility was 10 miles.

The weather observed at LEESBURG/GODFREY, VA (KJYO) at 09:55 AM EDT was:
  The skies were clear.
  Temperature: 90F ( 32C)  Dewpoint:  73F ( 23C)  Relative Humidity:  59%
  Winds from the CLM(CLM degs) at  0 mph.
  Altimeter:29.88 inches of mercury.
  The prevailing visibility was 10 miles.

The weather observed at LEESBURG/GODFREY, VA (KJYO) at 10:15 AM EDT was:
  The skies were clear.
  Temperature: 91F ( 33C)  Dewpoint:  75F ( 24C)  Relative Humidity:  59%
  Winds from the W  (270 degs) at  3 mph.
  Altimeter:29.88 inches of mercury.
  The prevailing visibility was 10 miles.

The weather observed at LEESBURG/GODFREY, VA (KJYO) at 10:35 AM EDT was:
  The skies were clear.
  Temperature: 95F ( 35C)  Dewpoint:  73F ( 23C)  Relative Humidity:  50%
  Winds from the SW (240 degs) at  8 mph.
  Altimeter:29.87 inches of mercury.
  The prevailing visibility was 10 miles.

The weather observed at LEESBURG/GODFREY, VA (KJYO) at 10:55 AM EDT was:
  The skies were clear.
  Temperature: 95F ( 35C)  Dewpoint:  73F ( 23C)  Relative Humidity:  50%
  Winds from the W  (270 degs) at  6 mph.
  Altimeter:29.87 inches of mercury.
  The prevailing visibility was 10 miles.

The weather observed at LEESBURG/GODFREY, VA (KJYO) at 11:15 AM EDT was:
  The skies were clear.
  Temperature: 95F ( 35C)  Dewpoint:  73F ( 23C)  Relative Humidity:  50%
  Winds from the SW (220 degs) at  8 mph.
  Altimeter:29.87 inches of mercury.
  The prevailing visibility was 10 miles.

The weather observed at LEESBURG/GODFREY, VA (KJYO) at 11:35 AM EDT was:
  The skies were clear.
  Temperature: 97F ( 36C)  Dewpoint:  73F ( 23C)  Relative Humidity:  47%
  Winds from the W  (260 degs) at  9 mph.
  Altimeter:29.87 inches of mercury.
  The prevailing visibility was 10 miles.

The weather observed at LEESBURG/GODFREY, VA (KJYO) at 11:55 AM EDT was:
  The skies were clear.
  Temperature: 99F ( 37C)  Dewpoint:  72F ( 22C)  Relative Humidity:  42%
  Winds from the SW (210 degs) at 12 mph.
  Altimeter:29.87 inches of mercury.
  The prevailing visibility was 10 miles.

The weather observed at LEESBURG/GODFREY, VA (KJYO) at 12:15 PM EDT was:
  The skies were clear.
  Temperature: 99F ( 37C)  Dewpoint:  72F ( 22C)  Relative Humidity:  42%
  Winds from the SW (220 degs) at  6 mph.
  Altimeter:29.87 inches of mercury.
  The prevailing visibility was 10 miles.

The weather observed at LEESBURG/GODFREY, VA (KJYO) at 12:35 PM EDT was:
  The skies were clear.
  Temperature: 99F ( 37C)  Dewpoint:  73F ( 23C)  Relative Humidity:  45%
  Winds from the SSW(200 degs) at 12 mph.
  Altimeter:29.86 inches of mercury.
  The prevailing visibility was 10 miles.

The weather observed at LEESBURG/GODFREY, VA (KJYO) at 12:55 PM EDT was:
  The skies were clear.
  Temperature: 99F ( 37C)  Dewpoint:  72F ( 22C)  Relative Humidity:  42%
  Winds from the S  (190 degs) at 14 mph.
  Altimeter:29.85 inches of mercury.
  The prevailing visibility was 10 miles.

The weather observed at LEESBURG/GODFREY, VA (KJYO) at 01:15 PM EDT was:
  The skies were clear.
  Temperature: 99F ( 37C)  Dewpoint:  72F ( 22C)  Relative Humidity:  42%
  Winds from the SSW(200 degs) at 14 mph.
  Altimeter:29.85 inches of mercury.
  The prevailing visibility was 10 miles.

The weather observed at LEESBURG/GODFREY, VA (KJYO) at 01:35 PM EDT was:
  The skies were clear.
  Temperature: 99F ( 37C)  Dewpoint:  73F ( 23C)  Relative Humidity:  45%
  Winds from the SSW(200 degs) at 10 mph.
  Altimeter:29.84 inches of mercury.
  The prevailing visibility was 10 miles.

The weather observed at LEESBURG/GODFREY, VA (KJYO) at 01:55 PM EDT was:
  The skies were clear.
  Temperature:100F ( 38C)  Dewpoint:  73F ( 23C)  Relative Humidity:  42%
  Winds from the SW (210 degs) at 14 mph.
  Altimeter:29.84 inches of mercury.
  The prevailing visibility was 10 miles.

The weather observed at LEESBURG/GODFREY, VA (KJYO) at 02:15 PM EDT was:
  The skies were partly cloudy.
  Temperature: 99F ( 37C)  Dewpoint:  73F ( 23C)  Relative Humidity:  45%
  Winds from the SSW(200 degs) at 15 mph.
  Altimeter:29.83 inches of mercury.
  The prevailing visibility was 10 miles.

The weather observed at LEESBURG/GODFREY, VA (KJYO) at 02:35 PM EDT was:
  The skies were partly cloudy.
  Temperature: 99F ( 37C)  Dewpoint:  73F ( 23C)  Relative Humidity:  45%
  Winds from the SW (220 degs) at 13 mph.
  Altimeter:29.82 inches of mercury.
  The prevailing visibility was 10 miles.

The weather observed at LEESBURG/GODFREY, VA (KJYO) at 02:55 PM EDT was:
  The skies were partly cloudy.
  Temperature:100F ( 38C)  Dewpoint:  73F ( 23C)  Relative Humidity:  42%
  Winds from the S  (170 degs) at  9 mph.
  Altimeter:29.82 inches of mercury.
  The prevailing visibility was 10 miles.

Short Range Forecast

Sorry no data found for jyo
Make sure jyo is a valid station
You might need to specify a nearby major city
Try Again

Zone Forecast

Sorry no data found for jyo
Make sure jyo is a valid station
You might need to specify a nearby major city
Try Again

State Forecast

Sorry no data found for jyo
Make sure jyo is a valid station
You might need to specify a nearby major city
Try Again

State Forecast Discussion

Sorry no data found for jyo
Make sure jyo is a valid station
You might need to specify a nearby major city
Try Again

GFS Short-Range Model Output Statistics (MOS) Forecast

KJYO   GFS MOS GUIDANCE    7/16/2024  1200 UTC
DT /JULY 16/JULY 17                /JULY 18                /JULY 19
HR   18 21 00 03 06 09 12 15 18 21 00 03 06 09 12 15 18 21 00 06 12
N/X                    74          94          65          86    64
TMP 100 97 88 81 79 76 80 89 93 90 81 73 68 66 68 77 83 85 81 68 70
DPT  72 72 73 72 72 71 72 72 71 71 73 72 68 66 65 65 65 64 64 63 62
CLD  SC BK BK OV BK BK FW BK BK OV OV OV OV OV BK BK BK BK BK BK SC
WDR  24 26 30 30 27 25 22 24 26 28 34 33 32 32 35 34 34 34 34 35 01
WSP  11 11 04 03 02 02 02 06 09 09 04 02 05 04 04 07 06 05 03 06 05
P06         8    24     7     5    64    57     7    12     4 12 11
P12                    31          74          61          14    12
Q06         0     0     0     0     4     2     0     0     0  0  0
Q12                     0           3           2           0     0
T06     32/35 25/11  2/ 1  4/10 45/38 23/11  1/ 1  3/ 6  9/19  1/ 0
T12           45/40        5/12       48/40        3/ 6    10/22
CIG   8  8  8  8  8  8  8  8  8  7  6  6  6  7  7  7  7  8  8  8  8
VIS   7  7  7  7  7  7  7  7  7  7  6  6  6  7  7  7  7  7  7  7  7
OBV   N  N  N  N  N  N  N  N  N  N  N HZ  N  N  N  N  N  N  N  N  N

GFS Long-Range Model Output Statistics (MOS) Forecast

KJYO   GFSX MOS GUIDANCE   7/16/2024  1200 UTC
FHR  24  36| 48  60| 72  84| 96 108|120 132|144 156|168 180|192
     WED 17| THU 18| FRI 19| SAT 20| SUN 21| MON 22| TUE 23|WED CLIMO
N/X  74  94| 65  86| 64  87| 65  86| 66  89| 68  92| 66  87| 66 64 87
TMP  80  81| 68  81| 70  83| 70  79| 71  81| 73  83| 70  81| 70
DPT  72  73| 65  64| 62  63| 66  67| 67  69| 68  69| 67  69| 65
CLD  PC  OV| OV  OV| PC  PC| PC  PC| OV  OV| PC  OV| OV  OV| OV
WND   4   9|  5   7|  6   6|  3   6|  3   4|  3   5|  4   6|  4
P12  31  74| 61  14| 12   5| 11  16| 18  21| 17  19| 26  31| 28999999
P24      82|     62|     12|     18|     34|     28|     48|      999
Q12   0   3|  2   0|  0   0|  0   0|  0   0|  0   0|       |
Q24       3|      1|      0|      0|      0|      0|       |
T12  25  45| 23   9|  6   8|  5  17| 13  23| 13  24| 18  28| 14
T24        | 45    |  9    |  8    | 19    | 25    | 34    | 31

NGM Model Output Statistics (MOS) Forecast

Climatological Summary

Sorry no data found for jyo
Make sure jyo is a valid station
You might need to specify a nearby major city
Try Again

Watch and Warning Statment

Sorry no data found for jyo
Make sure jyo is a valid station
You might need to specify a nearby major city
or it could be THERE ARE NO WATCHES OR WARNINGS for jyo
Try Again

Park/Ski Recreation Report/Forecast

Sorry no data found for jyo
Make sure jyo is a valid station
You might need to specify a nearby major city
Try Again